createdAt,value
2023-01-20T00:01:44.990Z,32.60
2023-01-20T00:04:15.015Z,34.60
2023-01-20T00:06:43.637Z,34.13
2023-01-20T00:09:14.148Z,30.72
2023-01-20T00:11:44.467Z,35.98
2023-01-20T00:14:13.768Z,31.35
2023-01-20T00:16:43.301Z,36.03
2023-01-20T00:19:15.363Z,25.85
2023-01-20T00:21:46.824Z,29.02
2023-01-20T00:24:19.508Z,33.50
2023-01-20T00:26:47.744Z,29.77
2023-01-20T00:29:17.087Z,29.70
2023-01-20T00:31:45.357Z,30.65
2023-01-20T00:34:13.575Z,87.70
2023-01-20T00:36:41.804Z,32.55
2023-01-20T00:39:10.043Z,27.32
2023-01-20T00:41:38.256Z,30.62
2023-01-20T00:44:06.468Z,31.85
2023-01-20T00:46:34.740Z,39.33
2023-01-20T00:49:02.954Z,34.95
2023-01-20T00:51:31.159Z,29.65
2023-01-20T00:53:59.358Z,27.98
2023-01-20T00:56:27.571Z,27.75
2023-01-20T00:58:55.772Z,25.75
2023-01-20T01:01:24.212Z,30.57
2023-01-20T01:03:54.228Z,31.40
2023-01-20T01:06:23.531Z,29.60
2023-01-20T01:08:52.786Z,31.02
2023-01-20T01:11:21.037Z,26.85
2023-01-20T01:13:49.252Z,32.83
2023-01-20T01:16:17.584Z,31.77
2023-01-20T01:18:45.864Z,29.45
2023-01-20T01:21:15.565Z,23.70
2023-01-20T01:23:44.200Z,30.25
2023-01-20T01:26:13.351Z,28.95
2023-01-20T01:28:41.569Z,28.23
2023-01-20T01:31:09.845Z,28.67
2023-01-20T01:33:38.301Z,29.10
2023-01-20T01:36:08.281Z,30.52
2023-01-20T01:38:36.508Z,30.27
2023-01-20T01:41:04.799Z,32.08
2023-01-20T01:43:34.554Z,28.00
2023-01-20T01:46:02.893Z,28.23
2023-01-20T01:48:38.266Z,28.80
2023-01-20T01:51:08.243Z,31.05
2023-01-20T01:53:41.005Z,28.85
2023-01-20T01:56:09.279Z,31.23
2023-01-20T01:58:39.014Z,30.45
2023-01-20T02:01:07.297Z,31.75
2023-01-20T02:03:42.787Z,28.62
2023-01-20T02:06:11.369Z,30.30
2023-01-20T02:08:39.664Z,28.75
2023-01-20T02:11:07.876Z,34.08
2023-01-20T02:13:36.155Z,34.13
2023-01-20T02:16:05.955Z,31.15
2023-01-20T02:18:44.673Z,29.95
2023-01-20T02:21:23.335Z,37.15
2023-01-20T02:23:53.371Z,30.82
2023-01-20T02:26:23.121Z,29.87
2023-01-20T02:29:04.628Z,30.12
2023-01-20T02:31:50.967Z,34.53
2023-01-20T02:34:26.602Z,32.20
2023-01-20T02:36:56.470Z,30.50
2023-01-20T02:39:27.627Z,36.40
2023-01-20T02:42:09.406Z,33.65
2023-01-20T02:44:41.877Z,30.52
2023-01-20T02:49:39.087Z,33.08
2023-01-20T02:52:14.570Z,36.93
2023-01-20T02:54:44.315Z,36.50
2023-01-20T02:57:14.049Z,33.58
2023-01-20T02:59:43.787Z,36.90
2023-01-20T03:02:13.524Z,32.60
2023-01-20T03:04:43.275Z,31.93
2023-01-20T03:07:12.555Z,32.95
2023-01-20T03:09:45.209Z,34.30
2023-01-20T03:12:22.152Z,31.05
2023-01-20T03:14:51.794Z,33.63
2023-01-20T03:17:20.572Z,31.55
2023-01-20T03:19:48.875Z,31.70
2023-01-20T03:22:17.338Z,39.30
2023-01-20T03:24:47.023Z,35.13
2023-01-20T03:27:15.429Z,33.58
2023-01-20T03:29:43.621Z,37.05
2023-01-20T03:32:12.306Z,35.35
2023-01-20T03:34:42.395Z,37.00
2023-01-20T03:37:11.767Z,31.87
2023-01-20T03:39:40.418Z,36.58
2023-01-20T03:42:10.155Z,33.00
2023-01-20T03:44:42.862Z,33.65
2023-01-20T03:47:12.624Z,35.15
2023-01-20T03:49:42.364Z,30.80
2023-01-20T03:52:12.113Z,35.58
2023-01-20T03:54:44.552Z,35.28
2023-01-20T03:59:41.325Z,34.38
2023-01-20T04:02:11.139Z,37.40
2023-01-20T04:04:40.539Z,35.70
2023-01-20T04:07:10.294Z,28.77
2023-01-20T04:09:40.043Z,36.33
2023-01-20T04:12:08.347Z,28.65
2023-01-20T04:14:37.121Z,32.78
2023-01-20T04:17:06.971Z,37.05
2023-01-20T04:19:35.205Z,34.67
2023-01-20T04:22:16.922Z,32.83
2023-01-20T04:24:55.706Z,30.87
2023-01-20T04:27:24.008Z,37.08
2023-01-20T04:29:53.082Z,31.10
2023-01-20T04:32:21.298Z,32.00
2023-01-20T04:34:51.863Z,29.52
2023-01-20T04:37:20.048Z,31.65
2023-01-20T04:39:48.254Z,30.82
2023-01-20T04:42:16.485Z,35.98
2023-01-20T04:44:45.467Z,34.40
2023-01-20T04:47:13.673Z,33.67
2023-01-20T04:49:41.881Z,29.35
2023-01-20T04:52:10.091Z,35.70
2023-01-20T04:54:38.289Z,31.87
2023-01-20T04:57:07.000Z,32.70
2023-01-20T04:59:35.206Z,34.58
2023-01-20T05:02:03.498Z,37.10
2023-01-20T05:04:31.735Z,36.28
2023-01-20T05:06:59.956Z,35.10
2023-01-20T05:09:28.161Z,86.50
2023-01-20T05:11:56.407Z,37.70
2023-01-20T05:14:24.668Z,33.20
2023-01-20T05:16:52.859Z,32.98
2023-01-20T05:19:21.058Z,38.42
2023-01-20T05:21:49.274Z,43.42
2023-01-20T05:24:17.555Z,33.83
2023-01-20T05:26:45.801Z,30.55
2023-01-20T05:29:14.014Z,31.05
2023-01-20T05:31:43.291Z,31.20
2023-01-20T05:34:12.028Z,31.52
2023-01-20T05:36:40.236Z,30.95
2023-01-20T05:39:08.435Z,32.42
2023-01-20T05:41:36.663Z,33.58
2023-01-20T05:44:04.867Z,35.25
2023-01-20T05:46:33.112Z,37.90
2023-01-20T05:49:02.865Z,29.50
2023-01-20T05:51:32.018Z,35.55
2023-01-20T05:54:00.246Z,27.40
2023-01-20T05:56:28.459Z,34.27
2023-01-20T05:58:56.693Z,29.70
2023-01-20T06:01:25.095Z,32.88
2023-01-20T06:03:53.329Z,31.05
2023-01-20T06:06:21.604Z,27.75
2023-01-20T06:08:51.352Z,51.42
2023-01-20T06:11:20.495Z,30.80
2023-01-20T06:13:48.709Z,27.05
2023-01-20T06:16:17.860Z,35.43
2023-01-20T06:18:46.205Z,39.78
2023-01-20T06:21:14.421Z,36.10
2023-01-20T06:23:42.642Z,53.15
2023-01-20T06:26:14.489Z,29.23
2023-01-20T06:28:42.982Z,31.68
2023-01-20T06:31:12.955Z,35.68
2023-01-20T06:33:41.236Z,100.75
2023-01-20T06:36:11.653Z,34.63
2023-01-20T06:38:39.927Z,29.02
2023-01-20T06:41:10.681Z,28.57
2023-01-20T06:43:41.749Z,34.08
2023-01-20T06:46:11.601Z,33.30
2023-01-20T06:48:39.867Z,30.65
2023-01-20T06:51:09.645Z,29.70
2023-01-20T06:53:37.814Z,26.48
2023-01-20T06:56:06.213Z,27.98
2023-01-20T06:58:34.584Z,30.02
2023-01-20T07:01:10.509Z,31.82
2023-01-20T07:03:40.052Z,29.37
2023-01-20T07:06:15.797Z,30.23
2023-01-20T07:08:44.470Z,32.80
2023-01-20T07:11:13.062Z,28.87
2023-01-20T07:13:43.616Z,28.30
2023-01-20T07:16:15.147Z,27.52
2023-01-20T07:18:42.169Z,28.95
2023-01-20T07:21:11.943Z,32.23
2023-01-20T07:23:40.543Z,32.48
2023-01-20T07:26:10.303Z,27.65
2023-01-20T07:28:38.796Z,30.97
2023-01-20T07:31:14.469Z,30.48
2023-01-20T07:33:43.133Z,30.02
2023-01-20T07:36:12.027Z,32.75
2023-01-20T07:38:40.457Z,30.30
2023-01-20T07:41:14.812Z,29.30
2023-01-20T07:43:43.862Z,29.40
2023-01-20T07:46:12.085Z,36.42
2023-01-20T07:48:40.401Z,31.70
2023-01-20T07:51:10.066Z,33.48
2023-01-20T07:53:43.421Z,28.20
2023-01-20T07:56:12.389Z,29.40
2023-01-20T07:58:42.876Z,30.95
2023-01-20T08:01:12.906Z,28.67
2023-01-20T08:03:41.429Z,32.28
2023-01-20T08:06:10.904Z,37.40
2023-01-20T08:08:41.511Z,30.52
2023-01-20T08:11:11.158Z,32.10
2023-01-20T08:13:39.489Z,31.73
2023-01-20T08:16:09.411Z,34.58
2023-01-20T08:18:37.904Z,27.25
2023-01-20T08:21:08.101Z,28.90
2023-01-20T08:23:36.789Z,27.20
2023-01-20T08:26:05.866Z,27.22
2023-01-20T08:28:35.254Z,32.83
2023-01-20T08:31:05.114Z,31.87
2023-01-20T08:33:33.449Z,32.53
2023-01-20T08:36:11.905Z,28.17
2023-01-20T08:38:40.205Z,24.45
2023-01-20T08:41:09.097Z,30.08
2023-01-20T08:43:37.473Z,33.10
2023-01-20T08:46:07.551Z,26.87
2023-01-20T08:48:36.515Z,27.60
2023-01-20T08:51:07.391Z,27.42
2023-01-20T08:53:36.039Z,23.85
2023-01-20T08:56:04.550Z,28.35
2023-01-20T08:58:32.804Z,23.10
2023-01-20T09:01:01.148Z,26.17
2023-01-20T09:03:29.867Z,26.93
2023-01-20T09:06:00.427Z,26.42
2023-01-20T09:08:29.456Z,27.62
2023-01-20T09:11:05.178Z,26.97
2023-01-20T09:13:33.604Z,30.92
2023-01-20T09:16:01.959Z,29.02
2023-01-20T09:18:31.798Z,28.95
2023-01-20T09:21:00.572Z,25.85
2023-01-20T09:23:29.328Z,27.95
2023-01-20T09:25:59.082Z,24.15
2023-01-20T09:28:30.171Z,25.90
2023-01-20T09:31:05.280Z,26.12
2023-01-20T09:33:35.930Z,30.48
2023-01-20T09:36:04.653Z,17.07
2023-01-20T09:38:50.417Z,18.67
2023-01-20T09:41:46.229Z,15.70
2023-01-20T09:44:16.148Z,15.20
2023-01-20T09:47:20.219Z,18.35
2023-01-20T09:50:24.686Z,22.75
2023-01-20T09:53:06.304Z,23.80
2023-01-20T09:55:47.980Z,19.00
2023-01-20T09:58:17.757Z,18.42
2023-01-20T10:00:47.510Z,24.32
2023-01-20T10:03:20.206Z,21.37
2023-01-20T10:05:50.324Z,20.82
2023-01-20T10:08:20.144Z,22.62
2023-01-20T10:10:58.662Z,17.80
2023-01-20T10:13:28.987Z,19.55
2023-01-20T10:15:57.616Z,19.25
2023-01-20T10:18:30.268Z,18.95
2023-01-20T10:21:00.052Z,19.50
2023-01-20T10:23:29.802Z,21.40
2023-01-20T10:25:59.591Z,17.42
2023-01-20T10:28:28.851Z,16.45
2023-01-20T10:30:58.830Z,17.80
2023-01-20T10:33:28.580Z,15.85
2023-01-20T10:35:57.639Z,17.57
2023-01-20T10:38:33.336Z,16.75
2023-01-20T10:41:03.097Z,17.67
2023-01-20T10:43:31.504Z,14.78
2023-01-20T10:46:07.677Z,20.60
2023-01-20T10:48:52.316Z,16.40
2023-01-20T10:51:24.925Z,16.27
2023-01-20T10:54:11.289Z,14.73
2023-01-20T10:56:42.973Z,15.35
2023-01-20T10:59:15.370Z,10.93
2023-01-20T11:01:45.232Z,18.40
2023-01-20T11:04:17.997Z,16.27
2023-01-20T11:06:47.772Z,18.73
2023-01-20T11:09:20.276Z,14.73
2023-01-20T11:14:16.440Z,12.65
2023-01-20T11:16:46.536Z,9.53
2023-01-20T11:19:14.882Z,14.05
2023-01-20T11:21:43.133Z,16.65
2023-01-20T11:24:27.852Z,15.98
2023-01-20T11:26:57.639Z,17.07
2023-01-20T11:29:29.815Z,18.95
2023-01-20T11:31:59.470Z,17.80
2023-01-20T11:34:31.739Z,15.18
2023-01-20T11:37:07.382Z,13.78
2023-01-20T11:39:37.142Z,18.98
2023-01-20T11:42:21.912Z,17.17
2023-01-20T11:44:51.671Z,9.40
2023-01-20T11:47:24.676Z,11.75
2023-01-20T11:50:06.212Z,15.90
2023-01-20T11:52:35.956Z,16.00
2023-01-20T11:55:14.530Z,20.77
2023-01-20T11:57:48.042Z,9.73
2023-01-20T12:00:20.825Z,14.80
2023-01-20T12:03:01.607Z,14.90
2023-01-20T12:05:31.358Z,10.90
2023-01-20T12:08:00.409Z,18.02
2023-01-20T12:10:30.171Z,16.10
2023-01-20T12:13:00.015Z,17.25
2023-01-20T12:15:35.528Z,17.07
2023-01-20T12:18:05.280Z,11.33
2023-01-20T12:20:54.459Z,9.83
2023-01-20T12:23:28.009Z,18.48
2023-01-20T12:26:00.737Z,11.90
2023-01-20T12:28:30.520Z,20.82
2023-01-20T12:31:00.000Z,13.28
2023-01-20T12:33:35.928Z,14.07
2023-01-20T12:36:11.389Z,12.53
2023-01-20T12:38:43.819Z,9.05
2023-01-20T12:43:43.996Z,11.33
2023-01-20T12:46:19.503Z,7.83
2023-01-20T12:48:58.174Z,11.12
2023-01-20T12:51:27.925Z,10.23
2023-01-20T12:54:12.753Z,11.93
2023-01-20T12:56:42.520Z,12.73
2023-01-20T12:59:14.641Z,11.15
2023-01-20T13:01:47.424Z,16.75
2023-01-20T13:04:33.627Z,13.80
2023-01-20T13:07:09.371Z,15.05
2023-01-20T13:09:48.048Z,8.18
2023-01-20T13:12:17.793Z,8.90
2023-01-20T13:14:47.564Z,9.28
2023-01-20T13:17:20.259Z,13.68
2023-01-20T13:19:49.817Z,8.00
2023-01-20T13:22:23.609Z,4.62
2023-01-20T13:24:53.481Z,7.45
2023-01-20T13:27:23.221Z,8.38
2023-01-20T13:29:53.544Z,5.75
2023-01-20T13:32:29.302Z,3.47
2023-01-20T13:34:58.169Z,11.60
2023-01-20T13:37:28.067Z,6.97
2023-01-20T13:39:57.800Z,12.07
2023-01-20T13:42:33.525Z,16.93
2023-01-20T13:45:11.997Z,6.15
2023-01-20T13:47:53.972Z,12.90
2023-01-20T13:50:35.285Z,10.72
2023-01-20T13:53:14.182Z,10.18
2023-01-20T13:55:43.938Z,6.67
2023-01-20T13:58:15.394Z,8.38
2023-01-20T14:00:43.972Z,5.87
2023-01-20T14:03:16.660Z,20.85
2023-01-20T14:05:46.435Z,12.43
2023-01-20T14:08:15.285Z,9.75
2023-01-20T14:10:43.876Z,13.35
2023-01-20T14:13:12.562Z,11.38
2023-01-20T14:15:41.032Z,6.72
2023-01-20T14:18:13.585Z,13.38
2023-01-20T14:23:24.434Z,13.55
2023-01-20T14:26:06.006Z,8.30
2023-01-20T14:28:35.469Z,9.58
2023-01-20T14:31:17.459Z,26.62
2023-01-20T14:33:50.075Z,7.87
2023-01-20T14:36:19.000Z,13.18
2023-01-20T14:38:57.219Z,11.28
2023-01-20T14:41:32.124Z,11.38
2023-01-20T14:44:00.872Z,9.90
2023-01-20T14:46:30.721Z,8.85
2023-01-20T14:48:59.777Z,17.17
2023-01-20T14:51:28.048Z,11.05
2023-01-20T14:54:13.956Z,12.28
2023-01-20T14:56:43.745Z,18.50
2023-01-20T14:59:13.463Z,15.43
2023-01-20T15:01:41.732Z,12.93
2023-01-20T15:04:11.627Z,14.00
2023-01-20T15:06:39.842Z,10.68
2023-01-20T15:09:11.348Z,15.38
2023-01-20T15:11:39.564Z,12.77
2023-01-20T15:14:08.845Z,13.65
2023-01-20T15:16:45.757Z,17.42
2023-01-20T15:19:16.059Z,13.45
2023-01-20T15:21:51.776Z,23.15
2023-01-20T15:24:30.759Z,12.15
2023-01-20T15:27:03.926Z,9.15
2023-01-20T15:29:36.424Z,12.18
2023-01-20T15:34:33.194Z,9.95
2023-01-20T15:37:01.473Z,17.55
2023-01-20T15:39:30.154Z,13.00
2023-01-20T15:41:59.000Z,9.88
2023-01-20T15:44:27.426Z,19.25
2023-01-20T15:46:57.515Z,7.95
2023-01-20T15:49:25.804Z,7.75
2023-01-20T15:51:54.001Z,8.93
2023-01-20T15:54:22.297Z,6.35
2023-01-20T15:56:50.520Z,13.85
2023-01-20T15:59:21.269Z,8.65
2023-01-20T16:01:50.112Z,9.45
2023-01-20T16:04:18.504Z,9.83
2023-01-20T16:06:46.717Z,10.78
2023-01-20T16:09:16.528Z,17.55
2023-01-20T16:11:44.742Z,5.35
2023-01-20T16:14:13.003Z,19.45
2023-01-20T16:16:41.233Z,15.95
2023-01-20T16:19:10.961Z,10.75
2023-01-20T16:21:39.220Z,6.87
2023-01-20T16:24:07.604Z,18.48
2023-01-20T16:26:36.000Z,7.47
2023-01-20T16:29:07.269Z,11.25
2023-01-20T16:31:35.500Z,22.42
2023-01-20T16:34:04.866Z,19.70
2023-01-20T16:36:33.069Z,10.25
2023-01-20T16:39:01.372Z,12.23
2023-01-20T16:41:31.894Z,19.23
2023-01-20T16:44:00.126Z,14.63
2023-01-20T16:46:29.298Z,18.32
2023-01-20T16:48:59.319Z,9.70
2023-01-20T16:51:28.216Z,9.90
2023-01-20T16:53:57.469Z,13.35
2023-01-20T16:56:27.486Z,16.70
2023-01-20T16:58:57.559Z,19.85
2023-01-20T17:01:26.346Z,12.75
2023-01-20T17:03:55.852Z,11.28
2023-01-20T17:06:25.608Z,16.73
2023-01-20T17:08:54.760Z,17.87
2023-01-20T17:11:24.229Z,20.68
2023-01-20T17:13:52.607Z,14.75
2023-01-20T17:16:21.228Z,17.12
2023-01-20T17:18:50.362Z,9.58
2023-01-20T17:21:20.505Z,13.15
2023-01-20T17:23:52.319Z,14.25
2023-01-20T17:26:21.172Z,10.40
2023-01-20T17:28:54.549Z,11.95
2023-01-20T17:31:22.836Z,14.53
2023-01-20T17:33:51.206Z,20.70
2023-01-20T17:36:20.148Z,27.37
2023-01-20T17:38:48.763Z,23.60
2023-01-20T17:41:17.756Z,18.02
2023-01-20T17:43:47.754Z,19.17
2023-01-20T17:46:24.070Z,28.12
2023-01-20T17:48:53.301Z,15.10
2023-01-20T17:51:24.262Z,27.70
2023-01-20T17:53:52.625Z,25.15
2023-01-20T17:56:22.650Z,26.42
2023-01-20T17:58:55.229Z,28.60
2023-01-20T18:01:25.776Z,23.12
2023-01-20T18:03:58.901Z,24.43
2023-01-20T18:06:28.437Z,26.12
2023-01-20T18:08:59.077Z,25.65
2023-01-20T18:11:29.894Z,26.45
2023-01-20T18:14:07.239Z,26.00
2023-01-20T18:16:38.876Z,25.95
2023-01-20T18:19:13.699Z,25.37
2023-01-20T18:21:44.270Z,28.60
2023-01-20T18:24:13.339Z,29.75
2023-01-20T18:26:42.954Z,28.70
2023-01-20T18:29:12.744Z,28.65
2023-01-20T18:31:41.884Z,27.25
2023-01-20T18:34:12.867Z,35.00
2023-01-20T18:36:44.755Z,34.75
2023-01-20T18:39:17.266Z,34.03
2023-01-20T18:41:47.150Z,27.77
2023-01-20T18:44:16.383Z,32.23
2023-01-20T18:46:45.887Z,25.15
2023-01-20T18:49:20.580Z,30.92
2023-01-20T18:51:48.880Z,30.27
2023-01-20T18:54:21.318Z,26.80
2023-01-20T18:56:52.004Z,33.58
2023-01-20T18:59:20.282Z,28.35
2023-01-20T19:01:49.381Z,28.27
2023-01-20T19:04:17.676Z,32.48
2023-01-20T19:06:48.065Z,35.55
2023-01-20T19:09:17.217Z,37.42
2023-01-20T19:11:46.499Z,33.83
2023-01-20T19:14:15.695Z,35.10
2023-01-20T19:16:48.572Z,47.90
2023-01-20T19:19:17.863Z,37.20
2023-01-20T19:21:48.568Z,42.95
2023-01-20T19:24:19.921Z,49.88
2023-01-20T19:26:49.056Z,40.17
2023-01-20T19:29:18.649Z,34.38
2023-01-20T19:31:48.944Z,41.70
2023-01-20T19:34:17.246Z,28.05
2023-01-20T19:36:52.887Z,34.00
2023-01-20T19:39:22.039Z,31.15
2023-01-20T19:41:51.342Z,30.15
2023-01-20T19:44:20.550Z,31.40
2023-01-20T19:46:48.786Z,31.97
2023-01-20T19:49:17.897Z,31.40
2023-01-20T19:51:48.117Z,35.08
2023-01-20T19:54:20.751Z,32.53
2023-01-20T19:56:49.895Z,33.73
2023-01-20T19:59:18.532Z,37.90
2023-01-20T20:01:47.435Z,36.93
2023-01-20T20:04:18.080Z,46.92
2023-01-20T20:06:48.808Z,49.38
2023-01-20T20:09:19.862Z,62.05
2023-01-20T20:11:49.036Z,56.48
2023-01-20T20:14:19.064Z,52.30
2023-01-20T20:16:48.645Z,56.80
2023-01-20T20:19:18.805Z,55.23
2023-01-20T20:21:47.913Z,49.25
2023-01-20T20:24:18.072Z,41.18
2023-01-20T20:26:48.270Z,54.53
2023-01-20T20:29:18.698Z,56.13
2023-01-20T20:31:48.173Z,50.98
2023-01-20T20:34:18.725Z,44.90
2023-01-20T20:36:48.484Z,44.67
2023-01-20T20:39:18.903Z,39.63
2023-01-20T20:41:49.477Z,41.30
2023-01-20T20:44:19.989Z,40.03
2023-01-20T20:46:48.848Z,40.70
2023-01-20T20:49:17.184Z,35.52
2023-01-20T20:51:45.707Z,36.33
2023-01-20T20:54:16.949Z,47.13
2023-01-20T20:56:45.788Z,38.38
2023-01-20T20:59:14.041Z,37.33
2023-01-20T21:01:44.492Z,46.28
2023-01-20T21:04:12.807Z,46.70
2023-01-20T21:06:41.075Z,51.65
2023-01-20T21:09:09.776Z,55.48
2023-01-20T21:11:38.634Z,41.48
2023-01-20T21:14:07.417Z,44.93
2023-01-20T21:16:35.647Z,37.30
2023-01-20T21:19:04.948Z,36.35
2023-01-20T21:21:33.167Z,39.65
2023-01-20T21:24:01.411Z,33.92
2023-01-20T21:26:30.736Z,27.95
2023-01-20T21:29:01.063Z,29.67
2023-01-20T21:31:30.686Z,30.23
2023-01-20T21:34:00.132Z,30.75
2023-01-20T21:36:28.848Z,28.25
2023-01-20T21:38:58.502Z,32.55
2023-01-20T21:41:26.740Z,31.95
2023-01-20T21:44:12.740Z,29.12
2023-01-20T21:46:41.053Z,28.73
2023-01-20T21:49:27.616Z,29.52
2023-01-20T21:52:14.111Z,29.50
2023-01-20T21:54:44.072Z,35.45
2023-01-20T21:57:12.302Z,29.67
2023-01-20T21:59:40.530Z,33.83
2023-01-20T22:02:09.080Z,28.32
2023-01-20T22:04:37.401Z,31.70
2023-01-20T22:07:05.611Z,29.42
2023-01-20T22:09:33.849Z,31.37
2023-01-20T22:12:02.065Z,31.17
2023-01-20T22:14:32.180Z,30.08
2023-01-20T22:17:00.591Z,32.48
2023-01-20T22:19:28.855Z,35.50
2023-01-20T22:21:57.078Z,33.73
2023-01-20T22:24:25.401Z,37.80
2023-01-20T22:26:53.770Z,36.38
2023-01-20T22:29:22.361Z,37.93
2023-01-20T22:31:54.466Z,34.83
2023-01-20T22:34:22.911Z,36.53
2023-01-20T22:36:51.158Z,33.10
2023-01-20T22:39:19.421Z,34.78
2023-01-20T22:41:47.642Z,32.10
2023-01-20T22:44:16.004Z,37.88
2023-01-20T22:46:44.222Z,32.75
2023-01-20T22:49:12.770Z,35.60
2023-01-20T22:51:41.014Z,38.50
2023-01-20T22:54:10.592Z,33.30
2023-01-20T22:56:39.249Z,31.95
2023-01-20T22:59:07.529Z,34.00
2023-01-20T23:01:36.100Z,35.60
2023-01-20T23:04:05.406Z,32.15
2023-01-20T23:06:35.148Z,33.90
2023-01-20T23:09:05.109Z,35.20
2023-01-20T23:11:33.843Z,30.82
2023-01-20T23:14:02.123Z,35.63
2023-01-20T23:16:30.381Z,32.55
2023-01-20T23:18:58.587Z,31.52
2023-01-20T23:21:26.951Z,33.63
2023-01-20T23:23:55.241Z,34.33
2023-01-20T23:26:25.004Z,32.25
2023-01-20T23:28:53.811Z,32.60
2023-01-20T23:31:23.531Z,35.35
2023-01-20T23:33:53.442Z,29.57
2023-01-20T23:36:23.005Z,30.43
2023-01-20T23:38:56.072Z,30.40
2023-01-20T23:41:25.028Z,29.77
2023-01-20T23:43:53.346Z,34.65
2023-01-20T23:46:21.718Z,26.40
2023-01-20T23:48:49.948Z,30.72
2023-01-20T23:51:18.243Z,31.20
2023-01-20T23:53:46.664Z,28.95
2023-01-20T23:56:16.411Z,34.48
2023-01-20T23:58:44.744Z,27.32
